Time;durP1;ratioP1;P1;durP2;ratioP2;P2;SDS_P1;SDS_P2;PMS_P1;PMS_P2;Temp;Humidity;BMP_temperature;BMP_pressure;BME280_temperature;BME280_humidity;BME280_pressure;Samples;Min_cycle;Max_cycle;Signal;HPM_P1;HPM_P2
2023/03/22 00:00:29;;;;;;;1.57;1.47;;;;;;;23.91;33.62;99159.60;1856096;76;28184;-51
2023/03/22 00:03:18;;;;;;;1.80;1.70;;;;;;;23.93;33.59;99168.95;1847192;77;28220;-55
2023/03/22 00:06:07;;;;;;;1.90;1.37;;;;;;;23.92;33.66;99165.93;1855251;76;28149;-54
2023/03/22 00:08:56;;;;;;;1.77;1.52;;;;;;;23.89;33.68;99162.30;1856938;76;28545;-52
2023/03/22 00:11:45;;;;;;;1.70;1.60;;;;;;;23.89;33.73;99160.94;1866251;76;28192;-54
2023/03/22 00:14:33;;;;;;;1.50;1.40;;;;;;;23.92;33.76;99165.93;1871884;74;28227;-50
2023/03/22 00:17:22;;;;;;;1.87;1.30;;;;;;;23.90;33.70;99163.42;1860960;76;28165;-52
2023/03/22 00:20:11;;;;;;;1.67;1.57;;;;;;;23.92;33.68;99163.98;1856997;77;31033;-51
2023/03/22 00:23:00;;;;;;;2.07;1.30;;;;;;;23.93;33.66;99160.71;1848718;77;28319;-51
2023/03/22 00:25:49;;;;;;;1.20;1.20;;;;;;;23.92;33.66;99154.39;1840120;77;28128;-52
2023/03/22 00:28:37;;;;;;;1.52;1.42;;;;;;;23.90;33.69;99151.61;1847520;77;29101;-51
2023/03/22 00:31:25;;;;;;;1.55;1.45;;;;;;;23.89;33.71;99156.82;1849230;76;28144;-54
2023/03/22 00:34:14;;;;;;;1.73;1.63;;;;;;;23.93;33.66;99145.09;1839067;77;28261;-53
2023/03/22 00:37:03;;;;;;;1.85;1.70;;;;;;;23.92;33.66;99151.64;1847779;77;28124;-53
2023/03/22 00:39:51;;;;;;;1.82;1.32;;;;;;;23.91;33.71;99149.16;1855723;77;28600;-50
2023/03/22 00:42:41;;;;;;;4.42;1.50;;;;;;;23.93;33.73;99140.14;1848681;77;28084;-51
2023/03/22 00:45:29;;;;;;;1.60;1.50;;;;;;;23.92;33.77;99145.36;1846014;77;28155;-54
2023/03/22 00:48:18;;;;;;;1.67;1.57;;;;;;;23.95;33.79;99151.69;1844305;77;28143;-52
2023/03/22 00:51:08;;;;;;;1.52;1.30;;;;;;;23.95;33.77;99149.78;1849990;77;28184;-55
2023/03/22 00:53:57;;;;;;;1.47;1.40;;;;;;;23.95;33.80;99147.03;1843159;76;28090;-54
2023/03/22 00:56:45;;;;;;;1.83;1.73;;;;;;;23.94;33.84;99144.56;1850201;77;28118;-55
2023/03/22 00:59:37;;;;;;;1.65;1.55;;;;;;;23.96;33.83;99138.27;1853534;77;28227;-53
2023/03/22 01:02:28;;;;;;;1.70;1.60;;;;;;;23.91;33.83;99137.66;1844441;76;28182;-54
2023/03/22 01:05:20;;;;;;;1.75;1.52;;;;;;;23.91;33.89;99129.42;1842610;77;28178;-54
2023/03/22 01:08:08;;;;;;;2.40;1.42;;;;;;;23.89;33.91;99123.91;1848860;77;28221;-54
2023/03/22 01:10:56;;;;;;;1.60;1.50;;;;;;;23.90;33.88;99126.38;1846284;77;28289;-56
2023/03/22 01:13:44;;;;;;;1.40;1.30;;;;;;;23.91;33.90;99127.22;1842812;77;28230;-55
2023/03/22 01:16:32;;;;;;;2.30;1.50;;;;;;;23.91;33.92;99117.08;1844698;75;28199;-55
2023/03/22 01:19:22;;;;;;;1.60;1.50;;;;;;;23.90;33.93;99114.57;1836993;77;28204;-54
2023/03/22 01:22:11;;;;;;;1.20;1.20;;;;;;;23.94;33.88;99113.81;1840110;77;28343;-51
2023/03/22 01:24:59;;;;;;;3.20;1.37;;;;;;;23.93;33.88;99115.45;1843393;77;28091;-54
2023/03/22 01:27:48;;;;;;;1.37;1.37;;;;;;;23.97;33.86;99116.06;1866827;76;32032;-55
2023/03/22 01:30:38;;;;;;;1.52;1.42;;;;;;;23.97;33.83;99118.80;1851434;76;28721;-56
2023/03/22 01:33:26;;;;;;;1.40;1.30;;;;;;;23.96;33.80;99117.70;1857677;76;28197;-53
2023/03/22 01:36:14;;;;;;;1.45;1.35;;;;;;;23.93;33.92;99111.33;1842678;77;28129;-56
2023/03/22 01:39:03;;;;;;;1.12;1.12;;;;;;;23.94;33.87;99112.44;1852327;76;28153;-52
2023/03/22 01:41:52;;;;;;;1.50;1.40;;;;;;;23.94;33.89;99115.75;1850696;77;28202;-54
2023/03/22 01:44:46;;;;;;;1.35;1.32;;;;;;;23.96;33.88;99120.44;1834730;77;30116;-54
2023/03/22 01:47:35;;;;;;;1.70;1.50;;;;;;;23.93;33.96;99119.03;1848185;77;38809;-52
2023/03/22 01:50:25;;;;;;;1.55;1.45;;;;;;;23.95;33.92;99124.25;1844637;77;28206;-53
2023/03/22 01:53:17;;;;;;;1.65;1.55;;;;;;;23.95;33.92;99120.97;1850088;77;28203;-50
2023/03/22 01:56:08;;;;;;;2.10;1.20;;;;;;;23.97;33.89;99124.29;1846022;77;28127;-50
2023/03/22 01:58:57;;;;;;;1.27;1.23;;;;;;;23.96;33.89;99120.44;1842537;76;28195;-52
2023/03/22 02:01:48;;;;;;;2.37;1.15;;;;;;;23.99;33.86;99116.63;1854640;77;28103;-51
2023/03/22 02:04:39;;;;;;;1.40;1.12;;;;;;;23.98;33.85;99114.16;1851139;77;28154;-51
2023/03/22 02:07:30;;;;;;;1.42;1.32;;;;;;;23.98;33.87;99105.92;1866523;75;28190;-51
2023/03/22 02:10:21;;;;;;;1.53;1.43;;;;;;;23.98;33.86;99104.55;1827280;77;28173;-54
2023/03/22 02:13:20;;;;;;;1.50;1.40;;;;;;;23.98;33.87;99107.30;1813472;78;28299;-48
2023/03/22 02:16:21;;;;;;;1.85;1.50;;;;;;;23.98;33.86;99112.25;1812871;78;28324;-49
2023/03/22 02:19:27;;;;;;;1.12;1.12;;;;;;;23.98;33.87;99111.41;1797144;78;28341;-53
2023/03/22 02:22:26;;;;;;;1.35;1.30;;;;;;;23.97;33.87;99103.72;1796493;78;28206;-50
2023/03/22 02:25:42;;;;;;;1.15;1.15;;;;;;;23.98;33.92;99111.41;1833403;77;28179;-53
2023/03/22 02:28:49;;;;;;;1.82;1.40;;;;;;;23.96;33.90;99102.61;1809684;78;28415;-50
2023/03/22 02:31:41;;;;;;;1.35;1.22;;;;;;;23.93;33.97;99098.98;1805618;78;28258;-50
2023/03/22 02:34:32;;;;;;;1.10;0.97;;;;;;;23.92;33.67;99110.50;1812128;78;28377;-50
2023/03/22 02:37:35;;;;;;;1.00;1.00;;;;;;;23.92;33.67;99110.50;1816573;78;28252;-51
2023/03/22 02:40:33;;;;;;;1.00;1.00;;;;;;;23.96;33.95;99114.42;1787552;78;28273;-52
2023/03/22 02:43:37;;;;;;;1.30;1.30;;;;;;;23.96;33.99;99109.47;1818505;77;28189;-51
2023/03/22 02:46:29;;;;;;;1.35;1.27;;;;;;;23.99;33.91;99104.86;1816249;78;28417;-54
2023/03/22 02:49:25;;;;;;;1.40;1.15;;;;;;;23.97;33.97;99110.58;1809015;78;28399;-53
2023/03/22 02:52:16;;;;;;;1.95;1.25;;;;;;;23.98;33.94;99108.13;1811950;78;28277;-55
2023/03/22 02:55:08;;;;;;;1.52;1.20;;;;;;;23.97;33.97;99107.83;1813794;78;28380;-54
2023/03/22 02:58:05;;;;;;;1.00;1.00;;;;;;;24.00;33.97;99109.24;1819847;78;28261;-54
2023/03/22 03:01:05;;;;;;;1.07;0.98;;;;;;;24.02;33.94;99107.06;1795983;78;28305;-53
2023/03/22 03:03:58;;;;;;;1.10;1.10;;;;;;;24.02;33.93;99109.81;1813782;77;28246;-53
2023/03/22 03:06:48;;;;;;;1.50;1.05;;;;;;;24.00;33.92;99103.75;1799670;78;28356;-54
2023/03/22 03:09:40;;;;;;;1.40;1.30;;;;;;;24.01;33.89;99104.86;1789349;77;28386;-52
2023/03/22 03:12:29;;;;;;;1.40;1.00;;;;;;;24.01;33.93;99110.91;1795216;78;28845;-53
2023/03/22 03:15:20;;;;;;;1.10;1.10;;;;;;;24.02;33.91;99112.02;1811076;78;28313;-53
2023/03/22 03:18:12;;;;;;;1.50;1.40;;;;;;;24.04;33.90;99110.39;1791142;77;28345;-52
2023/03/22 03:21:23;;;;;;;1.20;0.90;;;;;;;24.04;33.95;99107.11;1819279;78;28337;-51
2023/03/22 03:24:17;;;;;;;1.40;1.30;;;;;;;24.02;33.92;99109.28;1824647;78;28248;-52
2023/03/22 03:27:26;;;;;;;1.40;1.00;;;;;;;24.03;33.94;99106.00;1825338;78;28297;-52
2023/03/22 03:30:18;;;;;;;1.00;1.00;;;;;;;24.04;33.94;99105.73;1814654;78;28437;-50
2023/03/22 03:33:09;;;;;;;1.00;1.00;;;;;;;24.03;33.96;99104.09;1820247;78;28394;-49
2023/03/22 03:36:00;;;;;;;0.80;0.80;;;;;;;24.07;33.97;99106.34;1817081;78;28332;-52
2023/03/22 03:38:51;;;;;;;0.90;0.90;;;;;;;24.08;33.91;99103.90;1884300;75;28178;-53
2023/03/22 03:41:42;;;;;;;1.07;1.02;;;;;;;24.08;33.92;99104.73;1877701;75;28104;-51
2023/03/22 03:44:32;;;;;;;1.15;1.10;;;;;;;24.09;33.91;99107.75;1862288;75;28321;-51
2023/03/22 03:47:21;;;;;;;1.10;1.00;;;;;;;24.11;33.89;99108.89;1881573;75;28089;-55
2023/03/22 03:50:11;;;;;;;1.00;1.00;;;;;;;24.12;33.88;99100.92;1869999;75;28243;-54
2023/03/22 03:53:00;;;;;;;1.17;1.07;;;;;;;24.17;33.79;99102.37;1865284;75;32101;-50
2023/03/22 03:55:48;;;;;;;1.20;1.20;;;;;;;24.15;33.82;99112.78;1866450;75;28461;-53
2023/03/22 03:58:37;;;;;;;1.45;1.12;;;;;;;24.14;33.85;99108.36;1880298;75;28202;-53
2023/03/22 04:01:27;;;;;;;1.00;0.90;;;;;;;24.14;33.87;99107.82;1884427;75;28185;-52
2023/03/22 04:04:26;;;;;;;1.00;1.00;;;;;;;24.19;33.81;99108.43;1880072;75;28057;-51
2023/03/22 04:07:16;;;;;;;1.20;1.00;;;;;;;24.19;33.78;99107.89;1871346;75;28203;-49
2023/03/22 04:10:06;;;;;;;1.07;1.00;;;;;;;24.19;33.80;99104.31;1858658;75;28931;-54
2023/03/22 04:12:54;;;;;;;1.50;1.00;;;;;;;24.18;33.81;99102.11;1827838;77;28211;-54
2023/03/22 04:15:43;;;;;;;0.90;0.90;;;;;;;24.18;33.80;99106.22;1822260;76;28254;-50
2023/03/22 04:18:33;;;;;;;1.02;0.93;;;;;;;24.19;33.83;99112.02;1851714;77;28074;-56
2023/03/22 04:21:24;;;;;;;1.30;1.20;;;;;;;24.18;33.82;99114.45;1848025;77;28262;-52
2023/03/22 04:24:14;;;;;;;1.75;1.60;;;;;;;24.22;33.77;99107.40;1859402;76;28179;-51
2023/03/22 04:27:05;;;;;;;1.27;1.17;;;;;;;24.24;33.74;99112.09;1842125;76;28257;-52
2023/03/22 04:30:21;;;;;;;0.93;0.93;;;;;;;24.22;33.81;99108.77;1852486;76;29107;-51
2023/03/22 04:33:25;;;;;;;1.45;0.93;;;;;;;24.19;33.79;99109.27;1774032;79;28398;-50
2023/03/22 04:36:30;;;;;;;0.95;0.95;;;;;;;24.18;33.84;99110.34;1841781;76;28307;-52
2023/03/22 04:39:23;;;;;;;1.10;1.10;;;;;;;24.19;33.87;99116.13;1860416;76;28161;-54
2023/03/22 04:42:13;;;;;;;1.02;1.02;;;;;;;24.19;33.86;99113.39;1856412;76;28194;-53
2023/03/22 04:45:04;;;;;;;0.80;0.80;;;;;;;24.22;33.80;99118.38;1846361;76;28160;-52
2023/03/22 04:47:53;;;;;;;0.87;0.87;;;;;;;24.23;33.79;99109.04;1855639;76;28182;-49
2023/03/22 04:50:41;;;;;;;1.00;1.00;;;;;;;24.25;33.76;99107.44;1862455;76;28201;-52
2023/03/22 04:53:31;;;;;;;1.00;1.00;;;;;;;24.26;33.76;99103.59;1868829;76;28102;-53
2023/03/22 04:56:22;;;;;;;0.90;0.90;;;;;;;24.29;33.75;99102.55;1840555;76;28231;-48
2023/03/22 04:59:11;;;;;;;0.90;0.90;;;;;;;24.28;33.79;99106.37;1842950;77;28050;-50
2023/03/22 05:02:00;;;;;;;0.72;0.72;;;;;;;24.29;33.75;99103.92;1856258;77;28146;-54
2023/03/22 05:04:50;;;;;;;1.27;1.17;;;;;;;24.27;33.75;99108.00;1834444;77;28057;-54
2023/03/22 05:07:42;;;;;;;1.83;0.87;;;;;;;24.30;33.74;99107.47;1856461;77;28220;-53
2023/03/22 05:10:33;;;;;;;0.90;0.90;;;;;;;24.31;33.78;99114.63;1862409;75;28128;-53
2023/03/22 05:13:23;;;;;;;0.93;0.93;;;;;;;24.31;33.74;99109.14;1884025;75;28055;-53
2023/03/22 05:16:12;;;;;;;1.00;1.00;;;;;;;24.32;33.74;99113.56;1862767;75;28141;-51
2023/03/22 05:19:02;;;;;;;0.80;0.80;;;;;;;24.32;33.75;99109.45;1821537;77;28433;-53
2023/03/22 05:21:56;;;;;;;0.90;0.90;;;;;;;24.28;33.71;99094.02;1796432;78;28338;-52
2023/03/22 05:24:41;;;;;;;1.40;0.83;;;;;;;24.36;33.68;99107.30;1842635;77;28183;-53
2023/03/22 05:27:33;;;;;;;0.80;0.80;;;;;;;24.36;33.69;99112.80;1813214;78;28335;-52
2023/03/22 05:30:23;;;;;;;1.00;0.88;;;;;;;24.40;33.68;99114.47;1824206;78;32269;-52
2023/03/22 05:33:20;;;;;;;0.80;0.80;;;;;;;24.39;33.68;99116.37;1825602;78;28289;-52
2023/03/22 05:36:07;;;;;;;0.90;0.90;;;;;;;24.37;33.69;99114.97;1824102;78;28254;-54
2023/03/22 05:38:58;;;;;;;0.90;0.90;;;;;;;24.39;33.67;99119.13;1879588;75;28059;-52
2023/03/22 05:41:46;;;;;;;0.90;0.90;;;;;;;24.39;33.67;99112.27;1883795;75;34975;-52
2023/03/22 05:44:35;;;;;;;0.90;0.90;;;;;;;24.41;33.65;99111.46;1875090;75;38388;-53
2023/03/22 05:47:27;;;;;;;0.75;0.75;;;;;;;24.42;33.65;99110.92;1832230;77;28381;-52
2023/03/22 05:50:22;;;;;;;0.70;0.70;;;;;;;24.42;33.70;99110.92;1809365;78;28241;-50
2023/03/22 05:53:11;;;;;;;1.02;0.90;;;;;;;24.44;33.69;99104.09;1793240;78;28427;-53
2023/03/22 05:56:20;;;;;;;0.90;0.90;;;;;;;24.45;33.67;99103.56;1833770;77;28153;-52
2023/03/22 05:59:07;;;;;;;0.82;0.82;;;;;;;24.41;33.71;99103.23;1842085;77;28113;-48
2023/03/22 06:01:55;;;;;;;0.78;0.78;;;;;;;24.44;33.69;99099.98;1842149;77;28133;-51
2023/03/22 06:04:45;;;;;;;0.80;0.80;;;;;;;24.44;33.66;99105.47;1817675;78;28281;-52
2023/03/22 06:07:36;;;;;;;0.90;0.90;;;;;;;24.45;33.67;99108.52;1815751;78;28305;-53
2023/03/22 06:10:27;;;;;;;3.20;1.65;;;;;;;24.47;33.70;99112.36;1815928;78;28295;-51
2023/03/22 06:13:15;;;;;;;0.77;0.77;;;;;;;24.47;33.66;99119.23;1858677;76;28084;-54
2023/03/22 06:16:05;;;;;;;0.70;0.70;;;;;;;24.49;33.64;99119.27;1850681;77;38373;-51
2023/03/22 06:18:54;;;;;;;0.90;0.90;;;;;;;24.51;33.64;99119.83;1861281;76;28176;-50
2023/03/22 06:21:42;;;;;;;2.40;0.88;;;;;;;24.53;33.68;99121.77;1862612;76;28141;-53
2023/03/22 06:24:34;;;;;;;1.10;1.10;;;;;;;24.53;33.66;99125.89;1844790;76;28181;-53
2023/03/22 06:27:24;;;;;;;0.90;0.90;;;;;;;24.57;33.61;99129.81;1856683;77;28147;-52
2023/03/22 06:30:13;;;;;;;1.00;1.00;;;;;;;24.56;33.59;99130.05;1844357;77;28100;-56
2023/03/22 06:33:04;;;;;;;0.80;0.80;;;;;;;24.58;33.61;99130.62;1842557;77;33985;-52
2023/03/22 06:35:54;;;;;;;0.80;0.80;;;;;;;24.58;33.60;99139.69;1865779;76;28080;-53
2023/03/22 06:38:44;;;;;;;0.80;0.63;;;;;;;24.61;33.60;99133.70;1861129;76;28131;-49
2023/03/22 06:41:33;;;;;;;1.00;0.90;;;;;;;24.60;33.70;99130.65;1852462;77;28127;-49
2023/03/22 06:44:22;;;;;;;0.90;0.90;;;;;;;24.63;33.36;99131.52;1834889;77;28162;-54
2023/03/22 06:47:15;;;;;;;1.20;0.80;;;;;;;24.60;33.06;99127.06;1866167;76;28550;-48
2023/03/22 06:50:20;;;;;;;0.98;0.98;;;;;;;24.62;32.97;99124.92;1828942;77;28221;-53
2023/03/22 06:53:28;;;;;;;0.90;0.90;;;;;;;24.57;32.66;99123.48;1839714;77;28154;-53
2023/03/22 06:56:17;;;;;;;0.70;0.70;;;;;;;24.60;32.71;99126.53;1833141;75;28150;-54
2023/03/22 06:59:06;;;;;;;0.80;0.80;;;;;;;24.61;32.75;99123.25;1827943;77;28080;-54
2023/03/22 07:01:55;;;;;;;0.72;0.72;;;;;;;24.62;32.80;99127.10;1856593;77;28294;-54
2023/03/22 07:04:45;;;;;;;0.98;0.75;;;;;;;24.62;32.90;99122.98;1867993;76;28164;-51
2023/03/22 07:07:33;;;;;;;1.30;0.72;;;;;;;24.60;32.98;99122.95;1854799;76;28104;-53
2023/03/22 07:10:23;;;;;;;0.70;0.70;;;;;;;24.62;33.11;99120.23;1840373;77;28178;-52
2023/03/22 07:13:11;;;;;;;0.60;0.60;;;;;;;24.66;33.13;99120.56;1866062;76;28161;-54
2023/03/22 07:16:02;;;;;;;0.80;0.80;;;;;;;24.71;33.07;99120.06;1849828;76;28161;-54
2023/03/22 07:18:58;;;;;;;1.35;0.90;;;;;;;24.71;32.97;99124.18;1839493;76;28207;-54
2023/03/22 07:21:46;;;;;;;1.07;1.00;;;;;;;24.68;33.00;99121.13;1836807;76;28272;-54
2023/03/22 07:24:34;;;;;;;0.75;0.75;;;;;;;24.67;33.01;99119.46;1845932;76;28129;-53
2023/03/22 07:27:23;;;;;;;0.80;0.80;;;;;;;24.68;33.10;99123.34;1868896;76;28185;-53
2023/03/22 07:30:13;;;;;;;1.07;1.07;;;;;;;24.67;33.30;99124.41;1868660;75;28056;-51
2023/03/22 07:33:05;;;;;;;1.02;0.80;;;;;;;24.66;33.34;99128.27;1872195;76;30152;-57
2023/03/22 07:35:54;;;;;;;1.87;0.93;;;;;;;24.69;33.60;99123.61;1843308;76;28218;-58
2023/03/22 07:38:42;;;;;;;1.50;0.80;;;;;;;24.72;33.54;99120.89;1861034;76;28169;-58
2023/03/22 07:41:33;;;;;;;1.80;1.00;;;;;;;24.60;34.01;99125.16;1805768;77;28276;-58
2023/03/22 07:44:39;;;;;;;0.90;0.90;;;;;;;24.49;34.31;99127.50;1859502;76;28192;-56
2023/03/22 07:47:29;;;;;;;1.10;1.10;;;;;;;24.48;34.63;99127.20;1813737;76;28188;-53
2023/03/22 07:50:22;;;;;;;1.00;1.00;;;;;;;24.61;34.39;99128.20;1853446;76;28092;-55
2023/03/22 07:53:12;;;;;;;1.17;0.87;;;;;;;24.67;34.30;99131.82;1841534;76;28193;-58
2023/03/22 07:56:01;;;;;;;0.85;0.78;;;;;;;24.74;34.18;99129.70;1848154;76;28203;-54
2023/03/22 07:58:49;;;;;;;0.60;0.60;;;;;;;24.78;34.12;99128.70;1848222;76;28122;-56
2023/03/22 08:01:39;;;;;;;1.85;0.80;;;;;;;24.82;34.06;99136.16;1863875;76;28072;-56
2023/03/22 08:04:29;;;;;;;1.92;0.78;;;;;;;24.83;34.06;99136.46;1868846;76;28132;-54
2023/03/22 08:07:34;;;;;;;2.70;0.80;;;;;;;24.83;34.00;99137.00;1850796;76;28163;-52
2023/03/22 08:10:22;;;;;;;0.80;0.80;;;;;;;24.81;34.10;99132.31;1855531;76;28177;-55
2023/03/22 08:13:12;;;;;;;0.88;0.88;;;;;;;24.85;34.03;99136.19;1840338;76;28310;-53
2023/03/22 08:16:01;;;;;;;2.08;0.90;;;;;;;24.86;34.02;99135.92;1841922;76;28134;-55
2023/03/22 08:18:51;;;;;;;0.80;0.80;;;;;;;24.88;33.97;99137.06;1856003;77;28191;-55
2023/03/22 08:21:39;;;;;;;0.70;0.70;;;;;;;24.87;33.99;99140.88;1858318;76;28157;-55
2023/03/22 08:24:29;;;;;;;0.70;0.70;;;;;;;24.91;33.98;99140.64;1836842;77;28056;-56
2023/03/22 08:27:20;;;;;;;1.07;0.95;;;;;;;24.94;33.93;99147.84;1856726;77;28111;-55
2023/03/22 08:30:11;;;;;;;0.60;0.60;;;;;;;24.92;33.97;99147.27;1843464;76;28081;-56
2023/03/22 08:33:00;;;;;;;0.60;0.60;;;;;;;24.94;33.92;99142.88;1823787;77;28198;-56
2023/03/22 08:35:48;;;;;;;1.25;0.80;;;;;;;24.93;33.88;99137.09;1859647;76;28259;-55
2023/03/22 08:38:36;;;;;;;0.80;0.80;;;;;;;24.93;33.91;99135.17;1857315;76;28094;-55
2023/03/22 08:41:26;;;;;;;0.70;0.70;;;;;;;24.98;33.90;99128.91;1854231;76;28200;-55
2023/03/22 08:44:14;;;;;;;0.55;0.55;;;;;;;24.96;33.92;99120.93;1851338;77;28170;-55
2023/03/22 08:47:03;;;;;;;0.50;0.50;;;;;;;24.96;33.96;99117.34;1851752;77;28111;-54
2023/03/22 08:49:52;;;;;;;1.00;0.50;;;;;;;24.97;33.89;99117.64;1868608;76;28183;-54
2023/03/22 08:52:42;;;;;;;1.25;0.85;;;;;;;24.97;33.92;99112.15;1842088;76;28462;-54
2023/03/22 08:55:44;;;;;;;0.70;0.70;;;;;;;24.97;33.94;99104.71;1850467;77;37318;-55
2023/03/22 08:58:34;;;;;;;0.60;0.60;;;;;;;24.95;33.89;99102.77;1856714;77;28210;-55
2023/03/22 09:01:34;;;;;;;0.80;0.80;;;;;;;24.97;33.88;99099.78;1858524;76;28108;-55
2023/03/22 09:04:25;;;;;;;0.70;0.70;;;;;;;24.98;33.91;99102.80;1855685;77;28431;-56
2023/03/22 09:07:14;;;;;;;0.50;0.50;;;;;;;25.02;33.84;99096.52;1852595;76;30460;-54
2023/03/22 09:10:04;;;;;;;0.90;0.85;;;;;;;25.02;33.85;99096.52;1860304;76;28573;-54
2023/03/22 09:12:53;;;;;;;0.68;0.68;;;;;;;25.04;33.81;99094.91;1861707;76;28250;-53
2023/03/22 09:15:41;;;;;;;0.70;0.70;;;;;;;25.05;33.82;99097.38;1856107;76;28278;-55
2023/03/22 09:18:31;;;;;;;1.52;0.80;;;;;;;25.03;33.88;99095.45;1840538;76;28656;-52
2023/03/22 09:21:21;;;;;;;1.05;0.80;;;;;;;25.01;33.86;99091.30;1867291;76;28081;-53
2023/03/22 09:24:14;;;;;;;0.72;0.72;;;;;;;25.05;33.89;99095.17;1872050;74;28110;-55
2023/03/22 09:27:06;;;;;;;0.72;0.72;;;;;;;25.08;33.83;99090.55;1851289;76;28154;-52
2023/03/22 09:29:55;;;;;;;2.00;0.70;;;;;;;25.06;33.84;99086.69;1846073;75;28044;-56
2023/03/22 09:32:44;;;;;;;0.62;0.62;;;;;;;25.08;33.75;99087.25;1862024;76;28206;-53
2023/03/22 09:35:35;;;;;;;0.65;0.65;;;;;;;25.08;33.80;99084.51;1861641;75;28060;-55
2023/03/22 09:38:26;;;;;;;0.50;0.50;;;;;;;25.08;33.82;99079.55;1875102;75;28196;-56
2023/03/22 09:41:17;;;;;;;0.45;0.45;;;;;;;25.09;33.77;99082.02;1854135;76;28076;-54
2023/03/22 09:44:09;;;;;;;1.60;0.72;;;;;;;25.09;33.82;99075.69;1844031;76;28154;-56
2023/03/22 09:47:00;;;;;;;0.55;0.55;;;;;;;25.09;33.80;99071.57;1862508;76;28159;-54
2023/03/22 09:49:52;;;;;;;0.65;0.60;;;;;;;25.11;33.79;99068.05;1847999;75;28132;-55
2023/03/22 09:52:42;;;;;;;1.10;0.82;;;;;;;25.07;33.84;99066.34;1840401;76;28130;-54
2023/03/22 09:55:34;;;;;;;0.60;0.60;;;;;;;25.11;33.81;99062.55;1848184;76;28065;-55
2023/03/22 09:58:28;;;;;;;1.20;0.55;;;;;;;25.11;33.76;99062.55;1878786;75;28109;-54
2023/03/22 10:01:40;;;;;;;0.50;0.50;;;;;;;25.11;33.75;99055.11;1859106;76;28248;-54
2023/03/22 10:04:43;;;;;;;1.00;0.62;;;;;;;25.11;33.79;99054.30;1851399;75;28168;-58
2023/03/22 10:07:53;;;;;;;0.65;0.65;;;;;;;25.07;33.87;99053.14;1840478;76;28189;-58
2023/03/22 10:10:42;;;;;;;0.62;0.62;;;;;;;25.08;33.85;99047.41;1858438;76;28143;-55
2023/03/22 10:13:37;;;;;;;0.80;0.60;;;;;;;25.08;33.85;99050.69;1853706;76;28220;-57
2023/03/22 10:16:34;;;;;;;0.72;0.72;;;;;;;25.06;33.83;99047.38;1857682;75;28164;-58
2023/03/22 10:19:25;;;;;;;0.70;0.70;;;;;;;25.08;33.86;99035.03;1869041;76;28229;-56
2023/03/22 10:22:17;;;;;;;0.72;0.72;;;;;;;25.11;33.79;99033.69;1866847;75;28220;-56
2023/03/22 10:25:08;;;;;;;0.50;0.50;;;;;;;25.12;33.79;99033.95;1859508;76;28161;-57
2023/03/22 10:27:56;;;;;;;0.60;0.60;;;;;;;25.10;33.80;99029.27;1871009;76;28170;-56
2023/03/22 10:30:50;;;;;;;0.60;0.60;;;;;;;25.10;33.80;99029.27;1852907;76;28341;-58
2023/03/22 10:33:49;;;;;;;0.70;0.70;;;;;;;25.13;33.77;99026.00;1857619;76;28130;-56
2023/03/22 10:36:33;;;;;;;0.68;0.68;;;;;;;25.14;33.66;99018.02;1862918;76;28093;-54
2023/03/22 10:39:37;;;;;;;2.00;0.60;;;;;;;25.09;33.79;99017.44;1858795;76;31230;-53
2023/03/22 10:42:28;;;;;;;0.60;0.60;;;;;;;25.14;33.72;99011.15;1868900;75;28177;-56
2023/03/22 10:45:18;;;;;;;0.75;0.57;;;;;;;25.14;33.73;99009.78;1858031;76;28314;-52
2023/03/22 10:48:09;;;;;;;0.60;0.60;;;;;;;25.15;33.71;99008.16;1878266;76;28068;-56
2023/03/22 10:50:59;;;;;;;0.55;0.55;;;;;;;25.16;33.74;99006.22;1870805;76;28183;-55
2023/03/22 10:53:51;;;;;;;1.20;0.75;;;;;;;25.16;33.70;99002.09;1876015;75;28059;-57
2023/03/22 10:56:40;;;;;;;0.65;0.65;;;;;;;25.14;33.71;98991.91;1875665;76;28047;-56
2023/03/22 10:59:48;;;;;;;0.70;0.70;;;;;;;25.15;33.66;98986.17;1870163;76;28299;-56
2023/03/22 11:02:45;;;;;;;0.50;0.50;;;;;;;25.18;33.63;98982.06;1864404;76;28112;-55
2023/03/22 11:05:34;;;;;;;0.60;0.60;;;;;;;25.19;33.61;98985.08;1865121;76;28205;-56
2023/03/22 11:08:22;;;;;;;0.50;0.50;;;;;;;25.12;33.65;98965.23;1878403;75;28619;-56
2023/03/22 11:11:23;;;;;;;0.53;0.53;;;;;;;25.19;33.66;98979.59;1855497;76;28162;-58
2023/03/22 11:14:14;;;;;;;0.50;0.50;;;;;;;25.22;33.58;98966.70;1865583;76;28068;-55
2023/03/22 11:17:09;;;;;;;0.78;0.78;;;;;;;25.19;33.63;98959.80;1862777;76;28083;-55
2023/03/22 11:20:08;;;;;;;0.50;0.50;;;;;;;25.19;33.64;98953.47;1887145;75;28118;-56
2023/03/22 11:23:01;;;;;;;0.75;0.75;;;;;;;25.17;33.64;98948.25;1849610;76;28121;-53
2023/03/22 11:25:52;;;;;;;0.60;0.60;;;;;;;25.14;33.70;98947.39;1854619;76;28497;-55
2023/03/22 11:28:49;;;;;;;0.55;0.55;;;;;;;25.17;33.63;98949.63;1859270;76;28153;-53
2023/03/22 11:31:59;;;;;;;0.57;0.53;;;;;;;25.18;33.70;98943.02;1873644;76;28185;-54
2023/03/22 11:34:47;;;;;;;0.53;0.53;;;;;;;25.19;33.66;98939.19;1850168;76;28216;-54
2023/03/22 11:37:41;;;;;;;0.47;0.47;;;;;;;25.18;33.67;98932.59;1864995;76;28064;-57
2023/03/22 11:40:33;;;;;;;0.60;0.50;;;;;;;25.19;33.63;98927.36;1868125;76;28128;-56
2023/03/22 11:43:33;;;;;;;0.50;0.50;;;;;;;25.20;33.63;98927.66;1866658;76;28109;-56
2023/03/22 11:46:23;;;;;;;0.50;0.50;;;;;;;25.17;33.63;98920.77;1866323;76;28351;-54
2023/03/22 11:49:14;;;;;;;0.43;0.43;;;;;;;25.22;33.58;98915.30;1869201;76;28103;-53
2023/03/22 11:52:12;;;;;;;0.80;0.60;;;;;;;25.19;33.58;98914.45;1863777;76;28102;-55
2023/03/22 11:55:02;;;;;;;0.45;0.45;;;;;;;25.20;33.58;98914.75;1872201;75;28134;-53
2023/03/22 11:57:52;;;;;;;0.65;0.65;;;;;;;25.16;33.63;98903.14;1876232;75;28091;-56
2023/03/22 12:00:41;;;;;;;0.45;0.45;;;;;;;25.20;33.60;98905.13;1856823;76;28279;-55
2023/03/22 12:03:33;;;;;;;0.40;0.40;;;;;;;25.24;33.55;98897.98;1877278;76;27980;-57
2023/03/22 12:06:31;;;;;;;0.57;0.50;;;;;;;25.24;33.47;98898.53;1870120;76;28300;-55
2023/03/22 12:09:40;;;;;;;0.50;0.50;;;;;;;25.23;33.57;98896.86;1850305;76;28150;-57
2023/03/22 12:12:31;;;;;;;0.50;0.50;;;;;;;25.23;33.58;98890.83;1842471;77;28215;-55
2023/03/22 12:15:40;;;;;;;0.50;0.50;;;;;;;25.24;33.55;98879.28;1800580;78;28515;-57
2023/03/22 12:18:41;;;;;;;0.62;0.62;;;;;;;25.22;33.58;98880.11;1808799;77;28176;-55
2023/03/22 12:21:32;;;;;;;0.50;0.50;;;;;;;25.22;33.57;98875.98;1865660;75;28111;-55
2023/03/22 12:24:30;;;;;;;0.50;0.50;;;;;;;25.24;33.57;98873.80;1869056;75;28135;-57
2023/03/22 12:27:36;;;;;;;0.53;0.53;;;;;;;25.22;33.58;98862.23;1857089;75;28119;-54
2023/03/22 12:30:28;;;;;;;0.50;0.50;;;;;;;25.22;33.55;98853.45;1868776;76;28067;-55
2023/03/22 12:33:27;;;;;;;0.50;0.50;;;;;;;25.24;33.59;98846.30;1855072;76;28196;-54
2023/03/22 12:36:19;;;;;;;0.47;0.47;;;;;;;25.25;33.55;98840.52;1867939;75;28221;-55
2023/03/22 12:39:10;;;;;;;0.60;0.60;;;;;;;25.25;33.57;98836.98;1851138;76;28092;-55
2023/03/22 12:42:01;;;;;;;0.40;0.40;;;;;;;25.23;33.57;98830.34;1845798;76;28204;-52
2023/03/22 12:44:51;;;;;;;0.80;0.50;;;;;;;25.25;33.55;98824.60;1857349;76;28188;-55
2023/03/22 12:47:43;;;;;;;0.55;0.55;;;;;;;25.30;33.46;98810.86;1859438;75;28139;-54
2023/03/22 12:50:55;;;;;;;0.47;0.47;;;;;;;25.30;33.40;98804.81;1869413;75;28059;-57
2023/03/22 12:53:52;;;;;;;0.50;0.50;;;;;;;25.30;33.43;98800.69;1869024;76;28213;-55
2023/03/22 12:56:45;;;;;;;0.77;0.70;;;;;;;25.27;33.45;98800.42;1853528;76;28114;-58
2023/03/22 12:59:35;;;;;;;0.45;0.45;;;;;;;25.26;33.45;98798.20;1837260;77;28179;-55
2023/03/22 13:02:28;;;;;;;0.80;0.60;;;;;;;25.24;33.49;98791.33;1848300;76;28056;-57
2023/03/22 13:05:18;;;;;;;0.62;0.62;;;;;;;25.27;33.47;98785.30;1851313;76;28177;-54
2023/03/22 13:08:06;;;;;;;0.70;0.50;;;;;;;25.28;33.40;98786.39;1858941;76;28304;-52
2023/03/22 13:11:05;;;;;;;0.45;0.45;;;;;;;25.30;33.39;98786.95;1867921;76;28280;-56
2023/03/22 13:13:54;;;;;;;0.68;0.68;;;;;;;25.29;33.42;98781.73;1855138;76;28052;-57
2023/03/22 13:16:51;;;;;;;0.47;0.47;;;;;;;25.29;33.41;98777.60;1859339;75;28208;-56
2023/03/22 13:19:40;;;;;;;0.50;0.50;;;;;;;25.28;33.40;98777.31;1873674;76;28116;-55
2023/03/22 13:22:32;;;;;;;0.50;0.50;;;;;;;25.30;33.37;98766.87;1854543;76;28150;-57
2023/03/22 13:25:26;;;;;;;0.40;0.40;;;;;;;25.33;33.35;98769.09;1846986;76;28064;-54
2023/03/22 13:28:20;;;;;;;0.40;0.40;;;;;;;25.32;33.30;98763.33;1876083;75;28169;-57
2023/03/22 13:31:11;;;;;;;0.60;0.60;;;;;;;25.32;33.33;98759.20;1853013;76;28072;-54